createdAt,value
2018-12-08T00:00:41.901Z,0.90
2018-12-08T00:01:41.803Z,1.00
2018-12-08T00:02:41.818Z,1.00
2018-12-08T00:03:41.830Z,1.50
2018-12-08T00:04:41.844Z,1.00
2018-12-08T00:05:41.861Z,0.90
2018-12-08T00:06:41.883Z,1.10
2018-12-08T00:07:41.898Z,1.10
2018-12-08T00:08:41.910Z,1.10
2018-12-08T00:09:41.927Z,1.10
2018-12-08T00:10:41.937Z,1.00
2018-12-08T00:11:42.522Z,0.90
2018-12-08T00:12:41.978Z,1.20
2018-12-08T00:13:41.991Z,0.90
2018-12-08T00:14:42.005Z,0.80
2018-12-08T00:15:42.021Z,0.90
2018-12-08T00:16:42.031Z,0.90
2018-12-08T00:17:42.045Z,0.90
2018-12-08T00:18:42.070Z,1.00
2018-12-08T00:19:42.085Z,0.90
2018-12-08T00:20:42.098Z,0.90
2018-12-08T00:21:42.111Z,1.00
2018-12-08T00:22:42.124Z,1.00
2018-12-08T00:23:42.138Z,0.90
2018-12-08T00:24:42.164Z,0.90
2018-12-08T00:25:42.177Z,0.90
2018-12-08T00:26:42.192Z,0.90
2018-12-08T00:27:42.204Z,1.00
2018-12-08T00:28:42.218Z,1.30
2018-12-08T00:29:42.231Z,1.00
2018-12-08T00:30:42.245Z,0.90
2018-12-08T00:31:42.271Z,1.00
2018-12-08T00:32:42.296Z,1.00
2018-12-08T00:33:42.298Z,1.00
2018-12-08T00:34:42.311Z,1.00
2018-12-08T00:35:42.325Z,1.10
2018-12-08T00:36:42.338Z,1.00
2018-12-08T00:37:42.354Z,1.10
2018-12-08T00:38:42.378Z,1.50
2018-12-08T00:39:42.391Z,1.10
2018-12-08T00:40:42.406Z,1.20
2018-12-08T00:41:42.420Z,1.10
2018-12-08T00:42:42.535Z,1.30
2018-12-08T00:43:42.445Z,1.00
2018-12-08T00:44:42.495Z,1.10
2018-12-08T00:45:42.473Z,1.40
2018-12-08T00:46:42.498Z,1.30
2018-12-08T00:47:42.512Z,1.30
2018-12-08T00:48:42.525Z,1.20
2018-12-08T00:49:42.540Z,1.20
2018-12-08T00:50:42.554Z,1.40
2018-12-08T00:51:42.578Z,1.90
2018-12-08T00:52:42.581Z,1.40
2018-12-08T00:53:42.593Z,1.40
2018-12-08T00:54:42.606Z,1.30
2018-12-08T00:55:42.621Z,1.70
2018-12-08T00:56:42.646Z,1.30
2018-12-08T00:57:42.659Z,1.70
2018-12-08T00:58:42.673Z,1.60
2018-12-08T00:59:42.687Z,1.80
2018-12-08T01:00:42.700Z,1.60
2018-12-08T01:01:42.713Z,1.80
2018-12-08T01:02:42.728Z,2.10
2018-12-08T01:03:42.740Z,2.00
2018-12-08T01:04:42.754Z,1.80
2018-12-08T01:05:42.768Z,1.90
2018-12-08T01:06:42.782Z,2.20
2018-12-08T01:07:42.795Z,2.50
2018-12-08T01:08:42.822Z,2.70
2018-12-08T01:09:42.835Z,2.10
2018-12-08T01:10:42.848Z,2.10
2018-12-08T01:11:42.863Z,2.30
2018-12-08T01:12:42.875Z,1.90
2018-12-08T01:13:42.888Z,2.00
2018-12-08T01:14:42.902Z,2.10
2018-12-08T01:15:42.917Z,2.50
2018-12-08T01:16:42.929Z,2.30
2018-12-08T01:17:42.944Z,2.00
2018-12-08T01:18:42.960Z,1.90
2018-12-08T01:19:42.974Z,1.90
2018-12-08T01:20:42.983Z,2.30
2018-12-08T01:21:42.998Z,2.20
2018-12-08T01:22:43.011Z,2.20
2018-12-08T01:23:43.035Z,2.70
2018-12-08T01:24:44.165Z,2.10
2018-12-08T01:25:43.063Z,2.10
2018-12-08T01:26:43.077Z,2.00
2018-12-08T01:27:43.090Z,2.20
2018-12-08T01:28:43.104Z,2.10
2018-12-08T01:29:43.117Z,1.80
2018-12-08T01:30:43.131Z,2.40
2018-12-08T01:31:43.146Z,2.30
2018-12-08T01:32:43.158Z,2.20
2018-12-08T01:33:43.171Z,2.30
2018-12-08T01:34:43.186Z,2.20
2018-12-08T01:35:43.216Z,2.30
2018-12-08T01:36:43.235Z,2.20
2018-12-08T01:37:43.245Z,2.20
2018-12-08T01:38:43.255Z,2.60
2018-12-08T01:39:43.269Z,2.40
2018-12-08T01:40:43.295Z,2.30
2018-12-08T01:41:43.296Z,2.60
2018-12-08T01:42:43.310Z,2.20
2018-12-08T01:43:43.322Z,2.40
2018-12-08T01:44:43.349Z,2.40
2018-12-08T01:45:43.350Z,2.10
2018-12-08T01:46:43.363Z,2.40
2018-12-08T01:47:43.377Z,2.40
2018-12-08T01:48:43.403Z,2.30
2018-12-08T01:49:43.405Z,2.60
2018-12-08T01:50:43.430Z,2.40
2018-12-08T01:51:43.444Z,3.10
2018-12-08T01:52:43.456Z,2.50
2018-12-08T01:53:43.472Z,2.30
2018-12-08T01:54:43.484Z,2.40
2018-12-08T01:55:43.497Z,2.30
2018-12-08T01:56:43.511Z,2.60
2018-12-08T01:57:43.525Z,2.40
2018-12-08T01:58:43.539Z,2.50
2018-12-08T01:59:43.551Z,2.70
2018-12-08T02:00:43.565Z,2.40
2018-12-08T02:01:43.578Z,2.60
2018-12-08T02:02:43.593Z,2.30
2018-12-08T02:03:43.622Z,2.10
2018-12-08T02:04:43.631Z,2.40
2018-12-08T02:05:43.647Z,3.10
2018-12-08T02:06:43.659Z,2.40
2018-12-08T02:07:43.673Z,2.00
2018-12-08T02:08:43.685Z,3.10
2018-12-08T02:09:43.700Z,2.20
2018-12-08T02:10:43.724Z,2.50
2018-12-08T02:11:43.726Z,2.30
2018-12-08T02:12:43.740Z,2.50
2018-12-08T02:13:43.752Z,2.20
2018-12-08T02:14:43.765Z,2.40
2018-12-08T02:15:43.780Z,2.40
2018-12-08T02:16:43.794Z,2.30
2018-12-08T02:17:43.819Z,2.10
2018-12-08T02:18:43.833Z,1.90
2018-12-08T02:19:43.847Z,2.00
2018-12-08T02:20:43.860Z,2.30
2018-12-08T02:21:43.876Z,2.40
2018-12-08T02:22:43.886Z,2.30
2018-12-08T02:23:43.913Z,2.20
2018-12-08T02:24:43.914Z,2.30
2018-12-08T02:25:43.928Z,2.70
2018-12-08T02:26:43.943Z,2.30
2018-12-08T02:27:43.954Z,2.20
2018-12-08T02:28:43.968Z,2.20
2018-12-08T02:29:43.980Z,2.40
2018-12-08T02:30:43.999Z,2.40
2018-12-08T02:31:44.021Z,2.20
2018-12-08T02:32:44.033Z,2.10
2018-12-08T02:33:44.049Z,2.80
2018-12-08T02:34:44.112Z,2.10
2018-12-08T02:35:44.075Z,2.60
2018-12-08T02:36:44.087Z,2.60
2018-12-08T02:37:44.109Z,2.60
2018-12-08T02:38:44.119Z,2.50
2018-12-08T02:39:44.128Z,2.70
2018-12-08T02:40:44.141Z,2.30
2018-12-08T02:41:44.156Z,2.10
2018-12-08T02:42:44.168Z,2.50
2018-12-08T02:43:44.183Z,2.50
2018-12-08T02:44:44.196Z,2.80
2018-12-08T02:45:44.210Z,2.70
2018-12-08T02:46:44.222Z,2.50
2018-12-08T02:47:44.237Z,2.30
2018-12-08T02:48:44.263Z,2.90
2018-12-08T02:49:44.275Z,2.20
2018-12-08T02:50:44.293Z,2.30
2018-12-08T02:51:44.302Z,2.30
2018-12-08T02:52:44.316Z,2.80
2018-12-08T02:53:44.330Z,2.70
2018-12-08T02:54:44.347Z,2.30
2018-12-08T02:55:44.356Z,2.60
2018-12-08T02:56:44.371Z,2.50
2018-12-08T02:57:44.386Z,2.80
2018-12-08T02:58:44.401Z,2.70
2018-12-08T02:59:44.409Z,2.70
2018-12-08T03:00:44.425Z,2.40
2018-12-08T03:01:44.436Z,2.60
2018-12-08T03:02:44.454Z,2.50
2018-12-08T03:03:44.477Z,2.50
2018-12-08T03:04:44.491Z,2.50
2018-12-08T03:05:44.503Z,2.20
2018-12-08T03:06:44.516Z,2.40
2018-12-08T03:07:44.532Z,2.30
2018-12-08T03:08:44.543Z,2.60
2018-12-08T03:09:44.559Z,2.40
2018-12-08T03:10:44.570Z,2.30
2018-12-08T03:11:44.585Z,2.40
2018-12-08T03:12:44.597Z,2.60
2018-12-08T03:13:44.613Z,2.40
2018-12-08T03:14:44.639Z,2.60
2018-12-08T03:15:44.640Z,2.50
2018-12-08T03:16:44.665Z,2.30
2018-12-08T03:17:44.678Z,2.50
2018-12-08T03:18:44.700Z,2.60
2018-12-08T03:19:44.705Z,2.50
2018-12-08T03:20:44.720Z,3.00
2018-12-08T03:21:44.733Z,2.80
2018-12-08T03:22:44.746Z,2.30
2018-12-08T03:23:44.761Z,2.30
2018-12-08T03:24:44.776Z,2.80
2018-12-08T03:25:44.786Z,3.50
2018-12-08T03:26:44.800Z,3.00
2018-12-08T03:27:44.813Z,2.70
2018-12-08T03:28:44.840Z,2.50
2018-12-08T03:29:44.840Z,2.20
2018-12-08T03:30:45.487Z,3.00
2018-12-08T03:31:44.880Z,2.60
2018-12-08T03:32:44.892Z,2.80
2018-12-08T03:33:44.907Z,2.40
2018-12-08T03:34:44.919Z,2.10
2018-12-08T03:35:44.935Z,2.30
2018-12-08T03:36:44.946Z,2.00
2018-12-08T03:37:45.212Z,2.70
2018-12-08T03:38:44.974Z,2.40
2018-12-08T03:39:44.987Z,2.20
2018-12-08T03:40:45.014Z,2.20
2018-12-08T03:41:45.021Z,2.00
2018-12-08T03:42:45.030Z,2.50
2018-12-08T03:43:45.042Z,2.40
2018-12-08T03:44:45.058Z,2.40
2018-12-08T03:45:45.068Z,2.30
2018-12-08T03:46:45.096Z,2.30
2018-12-08T03:47:45.113Z,3.10
2018-12-08T03:48:45.123Z,2.10
2018-12-08T03:49:45.148Z,2.40
2018-12-08T03:50:45.148Z,2.80
2018-12-08T03:51:45.162Z,2.20
2018-12-08T03:52:45.176Z,2.60
2018-12-08T03:53:45.202Z,2.10
2018-12-08T03:54:45.203Z,2.30
2018-12-08T03:55:45.216Z,2.70
2018-12-08T03:56:45.230Z,2.40
2018-12-08T03:57:45.247Z,2.60
2018-12-08T03:58:45.257Z,2.30
2018-12-08T03:59:45.270Z,2.20
2018-12-08T04:00:45.287Z,2.60
2018-12-08T04:01:45.300Z,2.70
2018-12-08T04:02:45.314Z,2.30
2018-12-08T04:03:45.324Z,2.20
2018-12-08T04:04:45.338Z,2.40
2018-12-08T04:05:45.352Z,2.40
2018-12-08T04:06:45.366Z,2.30
2018-12-08T04:07:45.390Z,2.50
2018-12-08T04:08:45.393Z,2.80
2018-12-08T04:09:45.405Z,2.20
2018-12-08T04:10:45.420Z,2.10
2018-12-08T04:11:45.433Z,2.00
2018-12-08T04:12:45.458Z,2.20
2018-12-08T04:13:45.459Z,2.40
2018-12-08T04:14:45.488Z,2.90
2018-12-08T04:15:45.500Z,3.20
2018-12-08T04:16:45.524Z,2.60
2018-12-08T04:17:45.526Z,2.70
2018-12-08T04:18:45.542Z,2.60
2018-12-08T04:19:45.554Z,2.40
2018-12-08T04:20:45.565Z,2.60
2018-12-08T04:21:45.580Z,2.20
2018-12-08T04:22:45.594Z,2.20
2018-12-08T04:23:45.609Z,2.30
2018-12-08T04:24:45.620Z,2.50
2018-12-08T04:25:45.636Z,2.90
2018-12-08T04:26:45.646Z,2.70
2018-12-08T04:27:45.661Z,2.30
2018-12-08T04:28:45.673Z,2.30
2018-12-08T04:29:45.688Z,2.10
2018-12-08T04:30:45.702Z,2.20
2018-12-08T04:31:45.715Z,2.20
2018-12-08T04:32:45.729Z,2.00
2018-12-08T04:33:45.742Z,2.00
2018-12-08T04:34:45.758Z,2.10
2018-12-08T04:35:45.769Z,2.00
2018-12-08T04:36:45.782Z,2.30
2018-12-08T04:37:45.795Z,2.20
2018-12-08T04:38:45.810Z,1.90
2018-12-08T04:39:45.824Z,2.30
2018-12-08T04:40:45.838Z,2.30
2018-12-08T04:41:45.852Z,2.70
2018-12-08T04:42:45.863Z,2.20
2018-12-08T04:43:45.877Z,2.40
2018-12-08T04:44:45.889Z,2.80
2018-12-08T04:45:45.903Z,2.10
2018-12-08T04:46:45.916Z,2.20
2018-12-08T04:47:45.932Z,2.00
2018-12-08T04:48:45.959Z,2.20
2018-12-08T04:49:45.957Z,1.90
2018-12-08T04:50:45.970Z,2.30
2018-12-08T04:51:45.986Z,2.00
2018-12-08T04:52:45.998Z,2.40
2018-12-08T04:53:46.012Z,2.20
2018-12-08T04:54:46.027Z,2.40
2018-12-08T04:55:46.050Z,2.10
2018-12-08T04:56:46.054Z,2.40
2018-12-08T04:57:46.066Z,2.80
2018-12-08T04:58:46.082Z,2.20
2018-12-08T04:59:46.104Z,2.90
2018-12-08T05:00:46.119Z,2.30
2018-12-08T05:01:46.132Z,2.30
2018-12-08T05:02:46.147Z,2.30
2018-12-08T05:03:46.159Z,2.40
2018-12-08T05:04:46.174Z,2.30
2018-12-08T05:05:46.187Z,2.30
2018-12-08T05:06:46.199Z,2.60
2018-12-08T05:07:46.213Z,2.60
2018-12-08T05:08:46.229Z,2.20
2018-12-08T05:09:46.240Z,2.30
2018-12-08T05:10:46.254Z,2.10
2018-12-08T05:11:46.268Z,2.20
2018-12-08T05:12:46.283Z,2.40
2018-12-08T05:13:46.294Z,2.10
2018-12-08T05:14:46.308Z,2.50
2018-12-08T05:15:46.321Z,2.60
2018-12-08T05:16:46.335Z,2.00
2018-12-08T05:17:46.348Z,2.10
2018-12-08T05:18:46.362Z,2.50
2018-12-08T05:19:46.375Z,2.20
2018-12-08T05:20:46.389Z,2.40
2018-12-08T05:21:46.401Z,2.60
2018-12-08T05:22:46.416Z,2.20
2018-12-08T05:23:46.429Z,2.20
2018-12-08T05:24:46.444Z,2.40
2018-12-08T05:25:46.469Z,2.70
2018-12-08T05:26:46.470Z,2.30
2018-12-08T05:27:46.485Z,2.60
2018-12-08T05:28:46.497Z,2.50
2018-12-08T05:29:46.510Z,2.50
2018-12-08T05:30:46.525Z,2.50
2018-12-08T05:31:46.537Z,2.00
2018-12-08T05:32:46.585Z,2.40
2018-12-08T05:33:46.574Z,2.10
2018-12-08T05:34:46.578Z,2.50
2018-12-08T05:35:46.593Z,2.30
2018-12-08T05:36:46.607Z,2.50
2018-12-08T05:37:46.619Z,2.40
2018-12-08T05:38:46.633Z,2.60
2018-12-08T05:39:46.659Z,2.50
2018-12-08T05:40:46.661Z,2.60
2018-12-08T05:41:46.673Z,2.50
2018-12-08T05:42:46.687Z,2.30
2018-12-08T05:43:46.700Z,2.20
2018-12-08T05:44:46.714Z,2.70
2018-12-08T05:45:46.727Z,2.30
2018-12-08T05:46:46.744Z,2.30
2018-12-08T05:47:46.755Z,2.40
2018-12-08T05:48:46.768Z,2.30
2018-12-08T05:49:46.782Z,2.90
2018-12-08T05:50:46.796Z,2.30
2018-12-08T05:51:46.808Z,2.80
2018-12-08T05:52:46.823Z,2.40
2018-12-08T05:53:46.849Z,2.70
2018-12-08T05:54:46.850Z,2.30
2018-12-08T05:55:46.863Z,2.90
2018-12-08T05:56:46.879Z,2.70
2018-12-08T05:57:46.892Z,2.90
2018-12-08T05:58:46.904Z,2.50
2018-12-08T05:59:46.917Z,2.40
2018-12-08T06:00:46.930Z,2.40
2018-12-08T06:01:46.946Z,2.50
2018-12-08T06:02:46.958Z,2.60
2018-12-08T06:03:46.970Z,2.50
2018-12-08T06:04:46.985Z,2.40
2018-12-08T06:05:46.997Z,2.50
2018-12-08T06:06:47.013Z,3.20
2018-12-08T06:07:47.024Z,2.60
2018-12-08T06:08:47.039Z,2.40
2018-12-08T06:09:47.051Z,3.20
2018-12-08T06:10:47.074Z,2.40
2018-12-08T06:11:47.079Z,2.30
2018-12-08T06:12:47.093Z,2.80
2018-12-08T06:13:47.107Z,2.20
2018-12-08T06:14:47.121Z,2.60
2018-12-08T06:15:47.133Z,2.80
2018-12-08T06:16:47.147Z,2.60
2018-12-08T06:17:47.160Z,2.20
2018-12-08T06:18:47.174Z,2.30
2018-12-08T06:19:47.200Z,2.60
2018-12-08T06:20:47.203Z,2.20
2018-12-08T06:21:47.215Z,2.30
2018-12-08T06:22:47.227Z,2.50
2018-12-08T06:23:47.241Z,2.70
2018-12-08T06:24:47.255Z,2.60
2018-12-08T06:25:47.268Z,2.60
2018-12-08T06:26:47.281Z,2.10
2018-12-08T06:27:47.296Z,2.30
2018-12-08T06:28:47.309Z,2.10
2018-12-08T06:29:47.323Z,2.30
2018-12-08T06:30:47.336Z,2.10
2018-12-08T06:31:47.348Z,2.00
2018-12-08T06:32:47.363Z,2.40
2018-12-08T06:33:47.375Z,2.60
2018-12-08T06:34:47.390Z,2.80
2018-12-08T06:35:47.402Z,2.40
2018-12-08T06:36:47.417Z,2.30
2018-12-08T06:37:47.434Z,2.10
2018-12-08T06:38:47.444Z,2.40
2018-12-08T06:39:47.458Z,2.10
2018-12-08T06:40:47.473Z,2.00
2018-12-08T06:41:47.472Z,2.00
2018-12-08T06:42:47.486Z,2.50
2018-12-08T06:43:47.499Z,2.40
2018-12-08T06:44:47.525Z,2.20
2018-12-08T06:45:47.526Z,2.30
2018-12-08T06:46:47.539Z,2.50
2018-12-08T06:47:47.553Z,2.60
2018-12-08T06:48:47.567Z,2.20
2018-12-08T06:49:47.580Z,2.50
2018-12-08T06:50:47.655Z,2.20
2018-12-08T06:51:47.607Z,2.80
2018-12-08T06:52:47.619Z,2.30
2018-12-08T06:53:47.633Z,2.50
2018-12-08T06:54:47.646Z,2.60
2018-12-08T06:55:47.660Z,2.30
2018-12-08T06:56:47.673Z,2.10
2018-12-08T06:57:47.692Z,2.70
2018-12-08T06:58:47.701Z,2.60
2018-12-08T06:59:47.717Z,2.70
2018-12-08T07:00:47.727Z,2.30
2018-12-08T07:01:47.745Z,2.60
2018-12-08T07:02:47.758Z,2.20
2018-12-08T07:03:47.769Z,2.30
2018-12-08T07:04:47.781Z,2.70
2018-12-08T07:05:47.799Z,2.30
2018-12-08T07:06:47.854Z,2.60
2018-12-08T07:07:47.823Z,2.80
2018-12-08T07:08:47.835Z,2.50
2018-12-08T07:09:47.850Z,2.50
2018-12-08T07:10:47.862Z,2.40
2018-12-08T07:11:47.877Z,2.80
2018-12-08T07:12:47.890Z,2.60
2018-12-08T07:13:47.892Z,2.30
2018-12-08T07:14:47.981Z,2.60
2018-12-08T07:15:47.917Z,3.10
2018-12-08T07:16:47.932Z,2.10
2018-12-08T07:17:47.945Z,2.40
2018-12-08T07:18:47.959Z,2.20
2018-12-08T07:19:47.971Z,1.80
2018-12-08T07:20:47.985Z,2.00
2018-12-08T07:21:47.998Z,2.10
2018-12-08T07:22:48.013Z,2.00
2018-12-08T07:23:48.025Z,2.20
2018-12-08T07:24:48.039Z,2.20
2018-12-08T07:25:48.052Z,2.10
2018-12-08T07:26:48.066Z,1.90
2018-12-08T07:27:48.168Z,2.00
2018-12-08T07:28:48.093Z,2.60
2018-12-08T07:29:48.107Z,2.10
2018-12-08T07:30:48.123Z,2.00
2018-12-08T07:31:48.133Z,2.40
2018-12-08T07:32:48.147Z,2.00
2018-12-08T07:33:48.160Z,2.50
2018-12-08T07:34:48.175Z,2.10
2018-12-08T07:35:48.188Z,2.10
2018-12-08T07:36:48.200Z,1.70
2018-12-08T07:37:48.214Z,1.70
2018-12-08T07:38:48.228Z,2.20
2018-12-08T07:39:48.242Z,2.00
2018-12-08T07:40:48.255Z,1.80
2018-12-08T07:41:48.268Z,2.10
2018-12-08T07:42:48.283Z,2.00
2018-12-08T07:43:48.295Z,2.00
2018-12-08T07:44:48.308Z,2.20
2018-12-08T07:45:48.321Z,2.00
2018-12-08T07:46:48.335Z,2.00
2018-12-08T07:47:48.349Z,2.00
2018-12-08T07:48:48.363Z,2.00
2018-12-08T07:49:48.375Z,2.00
2018-12-08T07:50:48.389Z,2.10
2018-12-08T07:51:48.405Z,1.80
2018-12-08T07:52:48.416Z,2.10
2018-12-08T07:53:48.429Z,1.80
2018-12-08T07:54:48.446Z,1.80
2018-12-08T07:55:48.457Z,1.80
2018-12-08T07:56:48.470Z,1.70
2018-12-08T07:57:48.474Z,1.90
2018-12-08T07:58:48.485Z,1.70
2018-12-08T07:59:48.510Z,2.40
2018-12-08T08:00:48.514Z,2.00
2018-12-08T08:01:48.525Z,2.00
2018-12-08T08:02:48.538Z,1.80
2018-12-08T08:03:48.552Z,1.90
2018-12-08T08:04:48.566Z,1.70
2018-12-08T08:05:48.579Z,1.80
2018-12-08T08:06:48.594Z,1.80
2018-12-08T08:07:48.606Z,1.80
2018-12-08T08:08:48.621Z,1.60
2018-12-08T08:09:48.633Z,2.00
2018-12-08T08:10:48.647Z,1.80
2018-12-08T08:11:48.671Z,1.60
2018-12-08T08:12:48.720Z,2.10
2018-12-08T08:13:48.700Z,1.80
2018-12-08T08:14:48.714Z,2.00
2018-12-08T08:15:48.725Z,1.90
2018-12-08T08:16:48.739Z,1.70
2018-12-08T08:17:48.753Z,1.70
2018-12-08T08:18:48.766Z,2.20
2018-12-08T08:19:48.779Z,1.60
2018-12-08T08:20:48.797Z,2.30
2018-12-08T08:21:48.805Z,1.70
2018-12-08T08:22:48.820Z,2.20
2018-12-08T08:23:48.832Z,1.90
2018-12-08T08:24:48.847Z,1.90
2018-12-08T08:25:48.860Z,1.60
2018-12-08T08:26:48.874Z,1.60
2018-12-08T08:27:48.889Z,1.60
2018-12-08T08:28:48.901Z,1.50
2018-12-08T08:29:48.919Z,1.70
2018-12-08T08:30:48.928Z,1.80
2018-12-08T08:31:48.941Z,2.20
2018-12-08T08:32:48.957Z,1.90
2018-12-08T08:33:48.971Z,1.90
2018-12-08T08:34:48.994Z,1.50
2018-12-08T08:35:49.008Z,1.60
2018-12-08T08:36:49.022Z,1.40
2018-12-08T08:37:49.035Z,1.60
2018-12-08T08:38:49.047Z,1.70
2018-12-08T08:39:49.062Z,1.40
2018-12-08T08:40:49.088Z,1.50
2018-12-08T08:41:49.094Z,1.70
2018-12-08T08:42:49.102Z,1.80
2018-12-08T08:43:49.115Z,1.70
2018-12-08T08:44:49.129Z,1.90
2018-12-08T08:45:49.142Z,1.70
2018-12-08T08:46:49.156Z,1.60
2018-12-08T08:47:49.170Z,1.50
2018-12-08T08:48:49.182Z,1.60
2018-12-08T08:49:49.197Z,1.50
2018-12-08T08:50:49.210Z,1.50
2018-12-08T08:51:49.226Z,1.80
2018-12-08T08:52:49.238Z,1.40
2018-12-08T08:53:49.252Z,1.70
2018-12-08T08:54:49.276Z,1.50
2018-12-08T08:55:49.288Z,1.30
2018-12-08T08:56:49.360Z,1.40
2018-12-08T08:57:49.316Z,1.50
2018-12-08T08:58:49.331Z,1.60
2018-12-08T08:59:49.343Z,1.60
2018-12-08T09:00:49.356Z,1.80
2018-12-08T09:01:49.370Z,1.60
2018-12-08T09:02:49.384Z,1.50
2018-12-08T09:03:49.398Z,1.50
2018-12-08T09:04:49.410Z,1.80
2018-12-08T09:05:49.424Z,1.60
2018-12-08T09:06:49.444Z,2.10
2018-12-08T09:07:49.450Z,1.30
2018-12-08T09:08:49.476Z,1.40
2018-12-08T09:09:49.492Z,1.60
2018-12-08T09:10:49.503Z,1.60
2018-12-08T09:11:49.544Z,1.40
2018-12-08T09:12:49.530Z,1.40
2018-12-08T09:13:49.546Z,1.60
2018-12-08T09:14:49.557Z,1.30
2018-12-08T09:15:49.991Z,1.30
2018-12-08T09:16:49.597Z,1.60
2018-12-08T09:17:49.599Z,1.30
2018-12-08T09:18:49.612Z,1.50
2018-12-08T09:19:49.626Z,1.20
2018-12-08T09:20:49.652Z,1.60
2018-12-08T09:21:49.663Z,1.50
2018-12-08T09:22:49.681Z,1.60
2018-12-08T09:23:49.699Z,1.50
2018-12-08T09:24:49.710Z,1.40
2018-12-08T09:25:49.718Z,1.40
2018-12-08T09:26:49.733Z,2.20
2018-12-08T09:27:49.747Z,1.30
2018-12-08T09:28:49.759Z,1.90
2018-12-08T09:29:49.772Z,1.80
2018-12-08T09:30:49.798Z,1.40
2018-12-08T09:31:49.812Z,1.40
2018-12-08T09:32:49.826Z,1.40
2018-12-08T09:33:49.840Z,1.80
2018-12-08T09:34:49.851Z,1.40
2018-12-08T09:35:49.866Z,1.60
2018-12-08T09:36:49.881Z,1.50
2018-12-08T09:37:49.894Z,1.50
2018-12-08T09:38:49.905Z,1.40
2018-12-08T09:39:49.932Z,1.30
2018-12-08T09:40:49.945Z,1.20
2018-12-08T09:41:49.958Z,1.40
2018-12-08T09:42:49.972Z,1.50
2018-12-08T09:43:49.986Z,1.60
2018-12-08T09:44:50.000Z,1.90
2018-12-08T09:45:50.012Z,1.30
2018-12-08T09:46:50.039Z,1.70
2018-12-08T09:47:50.054Z,1.60
2018-12-08T09:48:50.064Z,1.00
2018-12-08T09:49:50.081Z,1.50
2018-12-08T09:50:50.092Z,1.20
2018-12-08T09:51:50.106Z,1.60
2018-12-08T09:52:50.133Z,1.40
2018-12-08T09:53:50.133Z,1.20
2018-12-08T09:54:50.147Z,1.20
2018-12-08T09:55:50.176Z,1.30
2018-12-08T09:56:50.185Z,1.50
2018-12-08T09:57:50.199Z,1.40
2018-12-08T09:58:50.213Z,1.60
2018-12-08T09:59:50.225Z,1.40
2018-12-08T10:00:50.240Z,1.40
2018-12-08T10:01:50.265Z,1.30
2018-12-08T10:02:50.267Z,1.70
2018-12-08T10:03:50.293Z,1.50
2018-12-08T10:04:50.305Z,1.40
2018-12-08T10:05:50.322Z,1.20
2018-12-08T10:06:50.334Z,1.30
2018-12-08T10:07:50.352Z,1.20
2018-12-08T10:08:50.360Z,1.20
2018-12-08T10:09:50.374Z,1.20
2018-12-08T10:10:50.400Z,1.20
2018-12-08T10:11:50.412Z,1.50
2018-12-08T10:12:50.427Z,1.50
2018-12-08T10:13:50.439Z,1.30
2018-12-08T10:14:50.452Z,1.30
2018-12-08T10:15:50.467Z,1.50
2018-12-08T10:16:50.482Z,1.30
2018-12-08T10:17:50.495Z,1.40
2018-12-08T10:18:50.519Z,1.60
2018-12-08T10:19:50.537Z,1.20
2018-12-08T10:20:50.546Z,1.50
2018-12-08T10:21:50.560Z,1.10
2018-12-08T10:22:50.575Z,1.20
2018-12-08T10:23:50.588Z,1.20
2018-12-08T10:24:50.601Z,1.30
2018-12-08T10:25:50.626Z,1.20
2018-12-08T10:26:50.642Z,1.20
2018-12-08T10:27:50.655Z,1.20
2018-12-08T10:28:50.667Z,1.30
2018-12-08T10:29:50.680Z,1.00
2018-12-08T10:30:50.706Z,1.30
2018-12-08T10:31:50.707Z,1.40
2018-12-08T10:32:50.732Z,1.20
2018-12-08T10:33:50.747Z,1.30
2018-12-08T10:34:50.759Z,1.00
2018-12-08T10:35:50.773Z,1.30
2018-12-08T10:36:50.800Z,1.40
2018-12-08T10:37:50.801Z,1.20
2018-12-08T10:38:50.815Z,1.20
2018-12-08T10:39:50.840Z,1.10
2018-12-08T10:40:50.854Z,1.20
2018-12-08T10:41:50.869Z,1.30
2018-12-08T10:42:50.880Z,1.30
2018-12-08T10:43:50.892Z,1.10
2018-12-08T10:44:50.906Z,1.20
2018-12-08T10:45:50.921Z,1.10
2018-12-08T10:46:50.945Z,1.20
2018-12-08T10:47:50.959Z,1.20
2018-12-08T10:48:50.973Z,1.40
2018-12-08T10:49:50.987Z,1.40
2018-12-08T10:50:51.001Z,1.20
2018-12-08T10:51:51.016Z,1.20
2018-12-08T10:52:51.040Z,1.00
2018-12-08T10:53:51.051Z,1.20
2018-12-08T10:54:51.068Z,1.20
2018-12-08T10:55:51.079Z,1.20
2018-12-08T10:56:51.093Z,1.40
2018-12-08T10:57:51.105Z,1.10
2018-12-08T10:58:51.120Z,1.10
2018-12-08T10:59:52.074Z,1.20
2018-12-08T11:00:51.158Z,0.90
2018-12-08T11:01:51.173Z,1.30
2018-12-08T11:02:51.185Z,1.70
2018-12-08T11:03:51.198Z,1.20
2018-12-08T11:04:51.213Z,1.30
2018-12-08T11:05:51.225Z,1.30
2018-12-08T11:06:51.252Z,1.00
2018-12-08T11:07:51.267Z,1.10
2018-12-08T11:08:51.284Z,1.30
2018-12-08T11:09:51.292Z,1.30
2018-12-08T11:10:51.306Z,1.50
2018-12-08T11:11:51.320Z,1.10
2018-12-08T11:12:51.345Z,1.30
2018-12-08T11:13:51.358Z,1.20
2018-12-08T11:14:51.371Z,1.10
2018-12-08T11:15:51.385Z,1.20
2018-12-08T11:16:51.398Z,1.40
2018-12-08T11:17:51.412Z,1.10
2018-12-08T11:18:51.427Z,1.50
2018-12-08T11:19:51.464Z,1.10
2018-12-08T11:20:51.465Z,1.50
2018-12-08T11:21:51.478Z,1.20
2018-12-08T11:22:51.493Z,1.20
2018-12-08T11:23:51.505Z,1.20
2018-12-08T11:24:51.519Z,1.20
2018-12-08T11:25:51.535Z,1.30
2018-12-08T11:26:51.558Z,1.10
2018-12-08T11:27:51.571Z,1.30
2018-12-08T11:28:51.585Z,1.30
2018-12-08T11:29:51.600Z,1.10
2018-12-08T11:30:51.611Z,1.20
2018-12-08T11:31:51.626Z,1.20
2018-12-08T11:32:51.651Z,1.00
2018-12-08T11:33:51.664Z,1.00
2018-12-08T11:34:51.681Z,1.40
2018-12-08T11:35:51.693Z,1.40
2018-12-08T11:36:51.705Z,1.20
2018-12-08T11:37:51.721Z,1.30
2018-12-08T11:38:51.743Z,1.10
2018-12-08T11:39:51.759Z,1.20
2018-12-08T11:40:51.771Z,1.30
2018-12-08T11:41:51.784Z,1.10
2018-12-08T11:42:51.800Z,1.40
2018-12-08T11:43:51.812Z,1.20
2018-12-08T11:44:51.837Z,1.10
2018-12-08T11:45:51.852Z,1.10
2018-12-08T11:46:51.866Z,1.20
2018-12-08T11:47:51.877Z,1.00
2018-12-08T11:48:51.892Z,0.90
2018-12-08T11:49:51.905Z,1.00
2018-12-08T11:50:51.932Z,1.30
2018-12-08T11:51:51.947Z,1.00
2018-12-08T11:52:51.957Z,0.90
2018-12-08T11:53:51.971Z,1.10
2018-12-08T11:54:51.989Z,1.20
2018-12-08T11:55:52.010Z,1.00
2018-12-08T11:56:52.274Z,1.10
2018-12-08T11:57:52.037Z,1.50
2018-12-08T11:58:52.051Z,0.90
2018-12-08T11:59:52.063Z,1.10
2018-12-08T12:00:52.090Z,1.00
2018-12-08T12:01:52.103Z,1.00
2018-12-08T12:02:52.130Z,1.20
2018-12-08T12:03:52.131Z,1.10
2018-12-08T12:04:52.143Z,1.20
2018-12-08T12:05:52.162Z,1.10
2018-12-08T12:06:52.185Z,1.20
2018-12-08T12:07:52.196Z,1.10
2018-12-08T12:08:52.210Z,1.10
2018-12-08T12:09:52.227Z,1.00
2018-12-08T12:10:52.246Z,1.20
2018-12-08T12:11:52.263Z,1.00
2018-12-08T12:12:52.277Z,1.00
2018-12-08T12:13:52.291Z,0.90
2018-12-08T12:14:52.304Z,0.90
2018-12-08T12:15:52.315Z,1.00
2018-12-08T12:16:52.342Z,0.90
2018-12-08T12:17:52.355Z,1.10
2018-12-08T12:18:52.370Z,1.20
2018-12-08T12:19:52.382Z,1.10
2018-12-08T12:20:52.396Z,0.90
2018-12-08T12:21:52.410Z,1.30
2018-12-08T12:22:52.435Z,0.90
2018-12-08T12:23:52.451Z,0.80
2018-12-08T12:24:52.462Z,1.10
2018-12-08T12:25:52.477Z,1.00
2018-12-08T12:26:52.490Z,0.90
2018-12-08T12:27:52.515Z,1.10
2018-12-08T12:28:52.527Z,1.20
2018-12-08T12:29:52.542Z,1.00
2018-12-08T12:30:52.556Z,1.00
2018-12-08T12:31:52.569Z,0.90
2018-12-08T12:32:52.594Z,0.90
2018-12-08T12:33:52.620Z,1.10
2018-12-08T12:34:52.623Z,1.10
2018-12-08T12:35:52.636Z,0.90
2018-12-08T12:36:52.648Z,0.90
2018-12-08T12:37:52.673Z,0.90
2018-12-08T12:38:52.688Z,1.10
2018-12-08T12:39:52.700Z,1.30
2018-12-08T12:40:52.715Z,1.10
2018-12-08T12:41:52.740Z,1.00
2018-12-08T12:42:52.754Z,1.20
2018-12-08T12:43:52.767Z,1.10
2018-12-08T12:44:52.780Z,1.50
2018-12-08T12:45:52.794Z,0.90
2018-12-08T12:46:52.807Z,1.20
2018-12-08T12:47:52.837Z,1.00
2018-12-08T12:48:52.846Z,0.90
2018-12-08T12:49:52.860Z,1.00
2018-12-08T12:50:52.874Z,1.30
2018-12-08T12:51:52.900Z,0.90
2018-12-08T12:52:52.912Z,1.20
2018-12-08T12:53:52.927Z,1.10
2018-12-08T12:54:52.943Z,1.10
2018-12-08T12:55:52.954Z,1.00
2018-12-08T12:56:52.968Z,0.90
2018-12-08T12:57:52.992Z,0.90
2018-12-08T12:58:53.006Z,0.90
2018-12-08T12:59:53.019Z,1.00
2018-12-08T13:00:53.033Z,0.90
2018-12-08T13:01:53.046Z,1.00
2018-12-08T13:02:53.076Z,1.00
2018-12-08T13:03:53.085Z,1.10
2018-12-08T13:04:53.099Z,1.10
2018-12-08T13:05:53.114Z,1.10
2018-12-08T13:06:53.127Z,1.20
2018-12-08T13:07:53.151Z,1.10
2018-12-08T13:08:53.410Z,1.20
2018-12-08T13:09:53.179Z,1.10
2018-12-08T13:10:53.193Z,0.90
2018-12-08T13:11:53.218Z,1.10
2018-12-08T13:12:53.231Z,1.00
2018-12-08T13:13:53.245Z,1.00
2018-12-08T13:14:53.259Z,1.00
2018-12-08T13:15:53.273Z,1.20
2018-12-08T13:16:53.286Z,1.00
2018-12-08T13:17:53.311Z,1.00
2018-12-08T13:18:53.325Z,0.90